createdAt,value
2023-02-13T00:01:54.335Z,103006.38
2023-02-13T00:04:20.891Z,102949.94
2023-02-13T00:06:50.525Z,103006.38
2023-02-13T00:09:17.260Z,102972.94
2023-02-13T00:11:43.872Z,102987.72
2023-02-13T00:14:10.658Z,103004.38
2023-02-13T00:16:37.156Z,102962.19
2023-02-13T00:19:04.064Z,103000.13
2023-02-13T00:21:30.757Z,102962.56
2023-02-13T00:23:57.300Z,102983.97
2023-02-13T00:26:24.708Z,102894.28
2023-02-13T00:28:51.363Z,102984.84
2023-02-13T00:31:20.193Z,102938.03
2023-02-13T00:33:47.252Z,102968.91
2023-02-13T00:36:20.286Z,102997.84
2023-02-13T00:38:47.389Z,102951.81
2023-02-13T00:41:14.413Z,102964.75
2023-02-13T00:43:40.868Z,102991.31
2023-02-13T00:46:07.582Z,102961.47
2023-02-13T00:48:35.133Z,102983.59
2023-02-13T00:51:02.009Z,102978.88
2023-02-13T00:53:28.603Z,102989.06
2023-02-13T00:55:55.186Z,102960.94
2023-02-13T00:58:22.169Z,102966.47
2023-02-13T01:00:49.142Z,102960.47
2023-02-13T01:03:16.643Z,102962.88
2023-02-13T01:05:44.425Z,102955.06
2023-02-13T01:08:12.202Z,102982.00
2023-02-13T01:10:39.578Z,102936.78
2023-02-13T01:13:06.484Z,102991.66
2023-02-13T01:15:33.670Z,102990.78
2023-02-13T01:18:00.957Z,102987.97
2023-02-13T01:20:28.850Z,102995.09
2023-02-13T01:22:56.050Z,102987.31
2023-02-13T01:25:23.201Z,102985.78
2023-02-13T01:27:50.011Z,102981.69
2023-02-13T01:30:18.174Z,102956.00
2023-02-13T01:32:46.211Z,102976.66
2023-02-13T01:35:13.879Z,102950.81
2023-02-13T01:37:40.975Z,102932.50
2023-02-13T01:40:10.183Z,102995.19
2023-02-13T01:42:36.938Z,102991.56
2023-02-13T01:45:21.224Z,102991.25
2023-02-13T01:47:51.175Z,102957.41
2023-02-13T01:50:25.667Z,102927.97
2023-02-13T01:53:29.201Z,102984.53
2023-02-13T01:55:59.925Z,102964.22
2023-02-13T01:58:31.263Z,102985.31
2023-02-13T02:00:59.054Z,102864.00
2023-02-13T02:03:39.280Z,102928.09
2023-02-13T02:06:07.920Z,102979.78
2023-02-13T02:08:34.717Z,102946.81
2023-02-13T02:11:10.389Z,102930.97
2023-02-13T02:13:37.599Z,102911.81
2023-02-13T02:16:04.158Z,102947.84
2023-02-13T02:18:30.649Z,102928.44
2023-02-13T02:21:00.175Z,102963.75
2023-02-13T02:23:56.053Z,102962.66
2023-02-13T02:26:45.596Z,102962.47
2023-02-13T02:29:23.607Z,102960.63
2023-02-13T02:32:15.141Z,102961.63
2023-02-13T02:35:29.459Z,102962.03
2023-02-13T02:37:55.908Z,102966.53
2023-02-13T02:40:40.574Z,102960.41
2023-02-13T02:43:12.928Z,102962.88
2023-02-13T02:45:50.859Z,102953.03
2023-02-13T02:48:40.866Z,102967.47
2023-02-13T02:51:14.216Z,102962.56
2023-02-13T02:54:30.757Z,102955.09
2023-02-13T02:57:03.402Z,102956.38
2023-02-13T02:59:48.561Z,102914.34
2023-02-13T03:02:34.740Z,102950.06
2023-02-13T03:05:21.460Z,102922.38
2023-02-13T03:07:47.998Z,102949.88
2023-02-13T03:10:41.234Z,102945.03
2023-02-13T03:13:21.648Z,102944.34
2023-02-13T03:16:11.968Z,102873.97
2023-02-13T03:18:59.521Z,102953.22
2023-02-13T03:22:14.076Z,102915.88
2023-02-13T03:24:50.955Z,102950.56
2023-02-13T03:27:54.425Z,102946.56
2023-02-13T03:30:56.309Z,102945.94
2023-02-13T03:33:42.244Z,102948.25
2023-02-13T03:36:48.313Z,102961.56
2023-02-13T03:39:27.122Z,102957.72
2023-02-13T03:42:38.468Z,102902.00
2023-02-13T03:45:30.994Z,102914.34
2023-02-13T03:47:59.206Z,102964.91
2023-02-13T03:50:26.375Z,102944.03
2023-02-13T03:53:06.978Z,102944.16
2023-02-13T03:55:59.051Z,102943.38
2023-02-13T03:58:55.056Z,102969.16
2023-02-13T04:01:26.363Z,102965.38
2023-02-13T04:03:59.387Z,102968.59
2023-02-13T04:06:33.274Z,102946.03
2023-02-13T04:08:59.831Z,102965.75
2023-02-13T04:11:38.832Z,102959.53
2023-02-13T04:14:16.830Z,102960.34
2023-02-13T04:16:46.589Z,102962.06
2023-02-13T04:19:13.564Z,102910.03
2023-02-13T04:21:40.640Z,102967.00
2023-02-13T04:24:07.722Z,102936.59
2023-02-13T04:26:40.330Z,102971.59
2023-02-13T04:29:06.876Z,102901.97
2023-02-13T04:31:33.688Z,102921.41
2023-02-13T04:34:00.262Z,102984.09
2023-02-13T04:36:27.008Z,102951.31
2023-02-13T04:38:53.608Z,102978.19
2023-02-13T04:41:20.215Z,102922.22
2023-02-13T04:43:46.714Z,102978.09
2023-02-13T04:46:13.531Z,102974.19
2023-02-13T04:48:40.071Z,102912.16
2023-02-13T04:51:06.562Z,102971.81
2023-02-13T04:53:33.125Z,102941.69
2023-02-13T04:55:59.580Z,102966.16
2023-02-13T04:58:26.390Z,102916.59
2023-02-13T05:00:52.868Z,102972.56
2023-02-13T05:03:19.453Z,102968.72
2023-02-13T05:05:45.981Z,102965.69
2023-02-13T05:08:12.571Z,102963.31
2023-02-13T05:10:39.132Z,102968.00
2023-02-13T05:13:05.714Z,102970.69
2023-02-13T05:15:32.488Z,102905.94
2023-02-13T05:17:59.449Z,102891.88
2023-02-13T05:20:25.932Z,102956.66
2023-02-13T05:23:12.622Z,102956.59
2023-02-13T05:25:41.258Z,102959.81
2023-02-13T05:28:27.011Z,102961.13
2023-02-13T05:30:53.610Z,102969.59
2023-02-13T05:33:20.184Z,102961.66
2023-02-13T05:35:46.971Z,102949.72
2023-02-13T05:38:13.457Z,102959.94
2023-02-13T05:40:39.954Z,102927.00
2023-02-13T05:43:06.589Z,102957.31
2023-02-13T05:45:33.064Z,102937.19
2023-02-13T05:47:59.746Z,102969.16
2023-02-13T05:50:26.249Z,102939.38
2023-02-13T05:52:52.753Z,102953.81
2023-02-13T05:55:19.232Z,102921.63
2023-02-13T05:57:45.709Z,102903.53
2023-02-13T06:00:12.784Z,102949.34
2023-02-13T06:02:39.546Z,102955.72
2023-02-13T06:05:06.282Z,102953.78
2023-02-13T06:07:33.223Z,102951.75
2023-02-13T06:09:59.736Z,102917.84
2023-02-13T06:12:26.394Z,102959.78
2023-02-13T06:14:52.953Z,102963.00
2023-02-13T06:17:19.478Z,102953.94
2023-02-13T06:19:46.151Z,102961.28
2023-02-13T06:22:12.595Z,102957.25
2023-02-13T06:24:39.059Z,102960.50
2023-02-13T06:27:05.549Z,102958.44
2023-02-13T06:29:32.955Z,102964.59
2023-02-13T06:31:59.722Z,102964.25
2023-02-13T06:34:26.414Z,102946.09
2023-02-13T06:36:52.996Z,102907.72
2023-02-13T06:39:19.475Z,102919.59
2023-02-13T06:41:45.934Z,102962.47
2023-02-13T06:44:12.579Z,102963.06
2023-02-13T06:46:39.124Z,102962.56
2023-02-13T06:49:05.768Z,102974.44
2023-02-13T06:51:32.228Z,102969.00
2023-02-13T06:53:58.775Z,102964.44
2023-02-13T06:56:26.390Z,102960.78
2023-02-13T06:58:52.863Z,102961.13
2023-02-13T07:01:19.901Z,102904.66
2023-02-13T07:03:48.647Z,102910.97
2023-02-13T07:06:21.547Z,102949.41
2023-02-13T07:08:48.489Z,102965.41
2023-02-13T07:11:23.334Z,102968.25
2023-02-13T07:13:50.301Z,102959.84
2023-02-13T07:16:17.181Z,102975.75
2023-02-13T07:18:43.724Z,102969.47
2023-02-13T07:21:10.332Z,102935.47
2023-02-13T07:23:36.889Z,102930.78
2023-02-13T07:26:03.980Z,102982.84
2023-02-13T07:28:30.878Z,102933.53
2023-02-13T07:30:57.897Z,102950.13
2023-02-13T07:33:24.604Z,102953.66
2023-02-13T07:35:52.348Z,102934.84
2023-02-13T07:38:19.063Z,102961.69
2023-02-13T07:40:45.941Z,102965.28
2023-02-13T07:43:13.251Z,102995.22
2023-02-13T07:45:39.794Z,102988.59
2023-02-13T07:48:06.305Z,102995.63
2023-02-13T07:50:33.019Z,102975.19
2023-02-13T07:53:01.619Z,102998.56
2023-02-13T07:55:29.181Z,102990.16
2023-02-13T07:57:56.014Z,102991.94
2023-02-13T08:00:23.122Z,102993.91
2023-02-13T08:02:50.519Z,102944.13
2023-02-13T08:05:17.104Z,102993.44
2023-02-13T08:07:43.624Z,102977.78
2023-02-13T08:10:31.777Z,102996.28
2023-02-13T08:12:58.352Z,102988.25
2023-02-13T08:15:24.931Z,102965.94
2023-02-13T08:17:51.448Z,102993.44
2023-02-13T08:20:18.062Z,103004.81
2023-02-13T08:22:44.543Z,103002.88
2023-02-13T08:25:11.046Z,102984.16
2023-02-13T08:27:38.361Z,102999.06
2023-02-13T08:30:06.406Z,102998.72
2023-02-13T08:32:44.866Z,103004.44
2023-02-13T08:35:18.487Z,102985.31
2023-02-13T08:37:46.599Z,103005.38
2023-02-13T08:40:14.632Z,103005.59
2023-02-13T08:42:41.779Z,103000.44
2023-02-13T08:45:10.515Z,102996.13
2023-02-13T08:47:37.871Z,102992.06
2023-02-13T08:50:04.777Z,102923.81
2023-02-13T08:52:31.306Z,102965.63
2023-02-13T08:54:57.823Z,102992.75
2023-02-13T08:57:24.330Z,102992.38
2023-02-13T08:59:50.806Z,102996.47
2023-02-13T09:02:17.391Z,102997.97
2023-02-13T09:04:43.916Z,102968.56
2023-02-13T09:07:10.495Z,102960.34
2023-02-13T09:09:37.056Z,102991.38
2023-02-13T09:12:03.935Z,102996.13
2023-02-13T09:14:30.640Z,102995.72
2023-02-13T09:16:57.186Z,102936.47
2023-02-13T09:19:23.844Z,102996.88
2023-02-13T09:21:50.355Z,102999.72
2023-02-13T09:24:16.816Z,102985.19
2023-02-13T09:26:43.311Z,102993.97
2023-02-13T09:29:09.918Z,102990.56
2023-02-13T09:31:36.620Z,102990.66
2023-02-13T09:34:03.142Z,102984.66
2023-02-13T09:36:29.603Z,102986.97
2023-02-13T09:38:57.439Z,102986.22
2023-02-13T09:41:26.416Z,102983.28
2023-02-13T09:44:02.971Z,102977.09
2023-02-13T09:46:33.740Z,102985.38
2023-02-13T09:49:03.206Z,102995.25
2023-02-13T09:51:29.860Z,102976.78
2023-02-13T09:54:02.692Z,102978.41
2023-02-13T09:56:35.465Z,102962.19
2023-02-13T09:59:06.929Z,102952.66
2023-02-13T10:01:43.025Z,102940.88
2023-02-13T10:04:47.328Z,102952.97
2023-02-13T10:07:23.385Z,102949.00
2023-02-13T10:10:18.085Z,102930.97
2023-02-13T10:12:50.479Z,102942.34
2023-02-13T10:15:41.922Z,102950.50
2023-02-13T10:18:18.769Z,102931.97
2023-02-13T10:20:48.754Z,102937.91
2023-02-13T10:23:46.378Z,102936.53
2023-02-13T10:26:24.308Z,102930.13
2023-02-13T10:29:19.252Z,102932.72
2023-02-13T10:31:47.090Z,102925.94
2023-02-13T10:34:25.516Z,102924.31
2023-02-13T10:36:52.194Z,102941.31
2023-02-13T10:39:28.762Z,102934.13
2023-02-13T10:42:17.281Z,102937.63
2023-02-13T10:44:55.852Z,102938.25
2023-02-13T10:47:45.927Z,102925.22
2023-02-13T10:50:27.617Z,102918.41
2023-02-13T10:53:06.493Z,102919.97
2023-02-13T10:55:48.208Z,102922.09
2023-02-13T10:58:30.391Z,102917.44
2023-02-13T11:01:09.796Z,102895.47
2023-02-13T11:03:36.599Z,102921.06
2023-02-13T11:06:07.132Z,102916.72
2023-02-13T11:08:40.621Z,102904.75
2023-02-13T11:11:33.838Z,102898.72
2023-02-13T11:14:23.913Z,102908.56
2023-02-13T11:17:00.112Z,102874.13
2023-02-13T11:19:33.437Z,102905.81
2023-02-13T11:22:06.472Z,102895.91
2023-02-13T11:24:33.655Z,102882.78
2023-02-13T11:27:08.945Z,102899.78
2023-02-13T11:29:37.355Z,102863.75
2023-02-13T11:32:17.524Z,102863.31
2023-02-13T11:34:45.408Z,102886.50
2023-02-13T11:37:19.443Z,102878.19
2023-02-13T11:39:51.113Z,102863.97
2023-02-13T11:42:36.471Z,102867.81
2023-02-13T11:45:23.843Z,102881.78
2023-02-13T11:47:50.603Z,102877.00
2023-02-13T11:50:37.726Z,102828.31
2023-02-13T11:53:25.733Z,102876.41
2023-02-13T11:56:21.762Z,102866.09
2023-02-13T11:59:01.372Z,102864.31
2023-02-13T12:01:29.132Z,102861.19
2023-02-13T12:04:19.068Z,102856.53
2023-02-13T12:06:59.984Z,102853.72
2023-02-13T12:09:29.130Z,102849.63
2023-02-13T12:12:02.656Z,102849.69
2023-02-13T12:14:40.755Z,102841.94
2023-02-13T12:17:14.390Z,102825.50
2023-02-13T12:19:49.572Z,102843.31
2023-02-13T12:22:37.557Z,102837.13
2023-02-13T12:25:33.502Z,102831.72
2023-02-13T12:28:11.953Z,102819.09
2023-02-13T12:30:47.673Z,102821.63
2023-02-13T12:33:40.300Z,102813.53
2023-02-13T12:36:31.122Z,102810.25
2023-02-13T12:39:18.587Z,102781.94
2023-02-13T12:42:09.496Z,102803.88
2023-02-13T12:45:00.465Z,102815.16
2023-02-13T12:47:30.732Z,102818.34
2023-02-13T12:50:09.340Z,102826.75
2023-02-13T12:52:56.164Z,102826.84
2023-02-13T12:56:01.219Z,102821.91
2023-02-13T12:58:46.417Z,102822.25
2023-02-13T13:01:25.068Z,102820.56
2023-02-13T13:04:15.228Z,102820.09
2023-02-13T13:06:42.040Z,102782.41
2023-02-13T13:09:40.026Z,102825.88
2023-02-13T13:12:12.566Z,102814.41
2023-02-13T13:15:00.629Z,102816.22
2023-02-13T13:17:30.180Z,102814.13
2023-02-13T13:20:08.896Z,102818.38
2023-02-13T13:22:48.053Z,102777.50
2023-02-13T13:25:20.731Z,102813.84
2023-02-13T13:27:50.536Z,102809.13
2023-02-13T13:30:29.572Z,102751.06
2023-02-13T13:33:19.445Z,102758.00
2023-02-13T13:35:58.467Z,102804.84
2023-02-13T13:38:43.637Z,102802.56
2023-02-13T13:41:13.143Z,102799.28
2023-02-13T13:43:58.761Z,102802.47
2023-02-13T13:46:35.040Z,102794.97
2023-02-13T13:49:21.569Z,102798.25
2023-02-13T13:51:48.072Z,102788.72
2023-02-13T13:54:14.520Z,102785.84
2023-02-13T13:56:53.408Z,102792.63
2023-02-13T13:59:51.663Z,102788.69
2023-02-13T14:02:18.473Z,102783.22
2023-02-13T14:05:04.014Z,102790.41
2023-02-13T14:07:35.672Z,102791.88
2023-02-13T14:10:02.657Z,102784.31
2023-02-13T14:12:29.166Z,102784.25
2023-02-13T14:14:56.980Z,102796.16
2023-02-13T14:17:45.330Z,102786.41
2023-02-13T14:20:33.120Z,102739.97
2023-02-13T14:23:17.788Z,102783.00
2023-02-13T14:25:44.374Z,102778.34
2023-02-13T14:28:22.366Z,102782.19
2023-02-13T14:30:51.286Z,102779.63
2023-02-13T14:33:25.446Z,102627.94
2023-02-13T14:36:04.763Z,102774.44
2023-02-13T14:38:31.544Z,102764.88
2023-02-13T14:40:59.097Z,102773.66
2023-02-13T14:43:39.241Z,102766.03
2023-02-13T14:46:33.367Z,102768.50
2023-02-13T14:49:07.395Z,102766.44
2023-02-13T14:51:38.900Z,102743.41
2023-02-13T14:54:13.659Z,102767.44
2023-02-13T14:56:40.244Z,102757.97
2023-02-13T14:59:13.610Z,102753.56
2023-02-13T15:01:45.227Z,102757.31
2023-02-13T15:04:19.383Z,102760.47
2023-02-13T15:06:46.827Z,102753.13
2023-02-13T15:09:22.230Z,102754.88
2023-02-13T15:11:49.361Z,102711.03
2023-02-13T15:14:15.769Z,102753.59
2023-02-13T15:16:42.619Z,102765.03
2023-02-13T15:19:15.152Z,102738.00
2023-02-13T15:21:48.785Z,102747.81
2023-02-13T15:24:15.537Z,102747.28
2023-02-13T15:26:42.162Z,102715.25
2023-02-13T15:29:25.911Z,102742.38
2023-02-13T15:31:53.476Z,102754.38
2023-02-13T15:34:35.582Z,102748.78
2023-02-13T15:37:03.011Z,102750.28
2023-02-13T15:39:31.421Z,102698.72
2023-02-13T15:42:02.597Z,102744.44
2023-02-13T15:44:30.681Z,102742.78
2023-02-13T15:47:08.382Z,102745.88
2023-02-13T15:49:39.040Z,102746.44
2023-02-13T15:52:15.138Z,102747.88
2023-02-13T15:54:55.130Z,102732.59
2023-02-13T15:57:23.309Z,102744.50
2023-02-13T15:59:50.351Z,102735.94
2023-02-13T16:02:46.199Z,102742.50
2023-02-13T16:05:14.314Z,102724.00
2023-02-13T16:07:54.911Z,102744.31
2023-02-13T16:10:32.604Z,102749.75
2023-02-13T16:13:01.813Z,102744.97
2023-02-13T16:15:30.357Z,102745.81
2023-02-13T16:17:57.138Z,102695.66
2023-02-13T16:20:26.651Z,102732.69
2023-02-13T16:22:59.426Z,102731.91
2023-02-13T16:25:29.069Z,102737.63
2023-02-13T16:27:57.888Z,102738.97
2023-02-13T16:30:34.008Z,102731.63
2023-02-13T16:33:13.037Z,102726.88
2023-02-13T16:35:55.046Z,102723.81
2023-02-13T16:38:32.381Z,102732.56
2023-02-13T16:41:04.255Z,102731.25
2023-02-13T16:43:37.988Z,102727.69
2023-02-13T16:46:19.761Z,102736.47
2023-02-13T16:49:01.156Z,102734.56
2023-02-13T16:51:43.175Z,102741.59
2023-02-13T16:54:25.064Z,102737.97
2023-02-13T16:57:13.306Z,102738.34
2023-02-13T16:59:49.336Z,102743.88
2023-02-13T17:02:15.921Z,102736.06
2023-02-13T17:04:44.464Z,102739.44
2023-02-13T17:07:32.121Z,102744.69
2023-02-13T17:10:05.866Z,102705.22
2023-02-13T17:12:36.862Z,102745.81
2023-02-13T17:15:04.206Z,102728.31
2023-02-13T17:17:32.267Z,102722.47
2023-02-13T17:19:59.590Z,102758.91
2023-02-13T17:22:30.202Z,102760.03
2023-02-13T17:24:58.004Z,102762.03
2023-02-13T17:27:24.482Z,102762.03
2023-02-13T17:29:51.033Z,102764.44
2023-02-13T17:32:19.899Z,102764.03
2023-02-13T17:34:46.705Z,102768.66
2023-02-13T17:37:27.174Z,102768.78
2023-02-13T17:39:54.372Z,102773.78
2023-02-13T17:42:24.704Z,102770.25
2023-02-13T17:44:51.314Z,102760.84
2023-02-13T17:47:18.387Z,102740.81
2023-02-13T17:49:45.092Z,102779.75
2023-02-13T17:52:15.858Z,102778.53
2023-02-13T17:54:43.953Z,102775.88
2023-02-13T17:57:11.754Z,102776.28
2023-02-13T17:59:38.287Z,102758.63
2023-02-13T18:02:11.616Z,102782.66
2023-02-13T18:04:38.130Z,102776.13
2023-02-13T18:07:04.939Z,102781.25
2023-02-13T18:09:31.521Z,102755.44
2023-02-13T18:12:05.309Z,102749.59
2023-02-13T18:14:32.849Z,102771.28
2023-02-13T18:16:59.737Z,102774.97
2023-02-13T18:19:27.174Z,102723.38
2023-02-13T18:21:53.596Z,102783.72
2023-02-13T18:24:20.124Z,102786.47
2023-02-13T18:26:46.781Z,102785.84
2023-02-13T18:29:13.313Z,102783.66
2023-02-13T18:31:40.593Z,102769.41
2023-02-13T18:34:07.313Z,102785.22
2023-02-13T18:36:33.865Z,102790.41
2023-02-13T18:39:00.463Z,102793.06
2023-02-13T18:41:26.950Z,102783.69
2023-02-13T18:43:57.243Z,102779.28
2023-02-13T18:46:24.110Z,102784.16
2023-02-13T18:48:50.665Z,102751.56
2023-02-13T18:51:17.117Z,102786.09
2023-02-13T18:53:43.598Z,102770.59
2023-02-13T18:56:11.550Z,102771.38
2023-02-13T18:58:38.318Z,102782.09
2023-02-13T19:01:09.856Z,102790.22
2023-02-13T19:03:40.125Z,102785.00
2023-02-13T19:06:09.072Z,102784.91
2023-02-13T19:08:36.164Z,102756.03
2023-02-13T19:11:07.543Z,102782.22
2023-02-13T19:13:34.065Z,102770.81
2023-02-13T19:16:08.269Z,102778.34
2023-02-13T19:18:42.834Z,102778.41
2023-02-13T19:21:09.663Z,102737.94
2023-02-13T19:23:36.919Z,102770.47
2023-02-13T19:26:07.749Z,102760.34
2023-02-13T19:28:34.631Z,102769.84
2023-02-13T19:31:03.245Z,102773.91
2023-02-13T19:33:30.128Z,102769.81
2023-02-13T19:35:58.218Z,102772.78
2023-02-13T19:38:24.756Z,102733.78
2023-02-13T19:40:51.896Z,102766.84
2023-02-13T19:43:18.353Z,102768.69
2023-02-13T19:45:44.876Z,102766.91
2023-02-13T19:48:11.363Z,102769.56
2023-02-13T19:50:39.082Z,102742.88
2023-02-13T19:53:07.556Z,102778.41
2023-02-13T19:55:34.297Z,102774.88
2023-02-13T19:58:00.762Z,102767.97
2023-02-13T20:00:27.379Z,102774.84
2023-02-13T20:02:55.084Z,102765.56
2023-02-13T20:05:21.669Z,102773.22
2023-02-13T20:07:48.165Z,102721.81
2023-02-13T20:10:14.935Z,102770.09
2023-02-13T20:12:41.447Z,102715.59
2023-02-13T20:15:08.279Z,102781.13
2023-02-13T20:17:38.071Z,102772.94
2023-02-13T20:20:05.084Z,102779.91
2023-02-13T20:22:31.667Z,102742.63
2023-02-13T20:24:58.185Z,102770.22
2023-02-13T20:27:24.676Z,102779.56
2023-02-13T20:29:53.327Z,102731.28
2023-02-13T20:32:25.593Z,102772.69
2023-02-13T20:34:59.607Z,102776.66
2023-02-13T20:37:26.443Z,102776.59
2023-02-13T20:39:52.971Z,102770.75
2023-02-13T20:42:19.674Z,102781.94
2023-02-13T20:44:46.758Z,102764.31
2023-02-13T20:47:13.298Z,102651.91
2023-02-13T20:49:39.815Z,102780.50
2023-02-13T20:52:06.323Z,102733.56
2023-02-13T20:54:32.942Z,102776.50
2023-02-13T20:56:59.567Z,102769.19
2023-02-13T20:59:26.104Z,102717.53
2023-02-13T21:01:52.579Z,102764.69
2023-02-13T21:04:20.672Z,102736.63
2023-02-13T21:06:48.334Z,102708.63
2023-02-13T21:09:15.427Z,102756.63
2023-02-13T21:11:43.673Z,102761.38
2023-02-13T21:14:11.966Z,102744.56
2023-02-13T21:16:40.009Z,102752.88
2023-02-13T21:19:09.471Z,102741.47
2023-02-13T21:21:37.247Z,102752.88
2023-02-13T21:24:08.020Z,102765.69
2023-02-13T21:26:35.198Z,102773.66
2023-02-13T21:29:02.090Z,102778.50
2023-02-13T21:31:32.111Z,102781.25
2023-02-13T21:34:04.613Z,102791.22
2023-02-13T21:36:32.515Z,102785.00
2023-02-13T21:38:59.912Z,102743.63
2023-02-13T21:41:26.508Z,102714.47
2023-02-13T21:43:53.293Z,102731.44
2023-02-13T21:46:25.163Z,102779.81
2023-02-13T21:48:54.142Z,102781.41
2023-02-13T21:51:21.409Z,102782.44
2023-02-13T21:53:48.816Z,102782.72
2023-02-13T21:56:17.734Z,102786.00
2023-02-13T21:58:45.076Z,102779.53
2023-02-13T22:01:32.079Z,102782.53
2023-02-13T22:04:01.270Z,102776.72
2023-02-13T22:06:29.694Z,102744.88
2023-02-13T22:09:11.253Z,102785.19
2023-02-13T22:11:38.619Z,102766.19
2023-02-13T22:14:07.648Z,102762.03
2023-02-13T22:16:36.556Z,102788.75
2023-02-13T22:19:04.247Z,102787.44
2023-02-13T22:21:31.891Z,102706.59
2023-02-13T22:23:58.728Z,102777.72
2023-02-13T22:26:29.640Z,102723.78
2023-02-13T22:29:00.132Z,102782.72
2023-02-13T22:31:26.790Z,102770.44
2023-02-13T22:34:03.264Z,102784.38
2023-02-13T22:36:35.082Z,102783.50
2023-02-13T22:39:01.592Z,102745.47
2023-02-13T22:41:28.484Z,102710.50
2023-02-13T22:43:55.196Z,102769.59
2023-02-13T22:46:26.906Z,102790.19
2023-02-13T22:48:53.923Z,102785.22
2023-02-13T22:51:26.817Z,102781.66
2023-02-13T22:53:54.993Z,102780.66
2023-02-13T22:56:22.553Z,102687.97
2023-02-13T22:58:49.272Z,102750.84
2023-02-13T23:01:19.646Z,102777.34
2023-02-13T23:03:46.617Z,102761.03
2023-02-13T23:06:14.150Z,102755.41
2023-02-13T23:08:41.409Z,102754.16
2023-02-13T23:11:32.231Z,102772.47
2023-02-13T23:13:59.041Z,102741.19
2023-02-13T23:16:26.162Z,102766.31
2023-02-13T23:18:56.929Z,102774.16
2023-02-13T23:21:24.753Z,102755.97
2023-02-13T23:23:51.386Z,102768.00
2023-02-13T23:26:18.387Z,102766.69
2023-02-13T23:28:44.965Z,102725.13
2023-02-13T23:31:11.626Z,102763.50
2023-02-13T23:33:38.142Z,102747.81
2023-02-13T23:36:05.016Z,102777.53
2023-02-13T23:38:31.496Z,102772.78
2023-02-13T23:41:06.374Z,102690.78
2023-02-13T23:43:33.037Z,102706.75
2023-02-13T23:45:59.573Z,102738.63
2023-02-13T23:48:26.102Z,102719.41
2023-02-13T23:50:53.182Z,102770.81
2023-02-13T23:53:19.914Z,102707.41
2023-02-13T23:55:46.396Z,102776.00
2023-02-13T23:58:12.864Z,102754.34
